createdAt,value
2018-12-11T00:00:38.611Z,19.80
2018-12-11T00:03:06.302Z,28.43
2018-12-11T00:05:33.898Z,26.53
2018-12-11T00:08:01.530Z,24.93
2018-12-11T00:10:29.086Z,24.03
2018-12-11T00:12:56.702Z,26.77
2018-12-11T00:15:24.334Z,26.17
2018-12-11T00:17:51.893Z,24.90
2018-12-11T00:20:19.470Z,26.53
2018-12-11T00:22:47.023Z,23.63
2018-12-11T00:25:14.889Z,26.93
2018-12-11T00:27:42.486Z,23.13
2018-12-11T00:30:10.401Z,28.17
2018-12-11T00:32:38.037Z,16.27
2018-12-11T00:35:06.180Z,24.10
2018-12-11T00:37:33.824Z,26.43
2018-12-11T00:40:01.364Z,25.40
2018-12-11T00:42:28.961Z,19.50
2018-12-11T00:44:56.553Z,24.77
2018-12-11T00:47:24.173Z,20.40
2018-12-11T00:49:51.753Z,21.70
2018-12-11T00:52:19.301Z,29.43
2018-12-11T00:54:46.969Z,23.87
2018-12-11T00:57:14.539Z,32.90
2018-12-11T00:59:42.227Z,18.53
2018-12-11T01:02:09.885Z,28.80
2018-12-11T01:04:37.496Z,18.20
2018-12-11T01:07:05.095Z,24.73
2018-12-11T01:09:33.025Z,27.33
2018-12-11T01:12:00.626Z,39.77
2018-12-11T01:14:28.195Z,30.90
2018-12-11T01:16:55.822Z,24.47
2018-12-11T01:19:23.369Z,22.80
2018-12-11T01:21:50.971Z,26.57
2018-12-11T01:24:18.555Z,24.67
2018-12-11T01:26:46.462Z,21.93
2018-12-11T01:29:14.063Z,27.97
2018-12-11T01:31:41.624Z,28.87
2018-12-11T01:34:09.236Z,35.90
2018-12-11T01:36:36.802Z,27.13
2018-12-11T01:39:07.580Z,31.43
2018-12-11T01:41:35.194Z,24.70
2018-12-11T01:44:02.867Z,25.17
2018-12-11T01:46:30.488Z,23.60
2018-12-11T01:48:58.118Z,33.10
2018-12-11T01:51:25.739Z,34.00
2018-12-11T01:53:53.303Z,25.10
2018-12-11T01:56:20.975Z,26.67
2018-12-11T01:58:48.583Z,24.17
2018-12-11T02:01:16.181Z,23.53
2018-12-11T02:03:43.723Z,29.27
2018-12-11T02:06:11.381Z,27.83
2018-12-11T02:08:38.953Z,29.73
2018-12-11T02:11:06.557Z,26.50
2018-12-11T02:13:34.414Z,25.33
2018-12-11T02:16:01.985Z,23.77
2018-12-11T02:18:29.542Z,21.67
2018-12-11T02:20:57.390Z,27.93
2018-12-11T02:23:25.033Z,35.77
2018-12-11T02:25:52.816Z,32.77
2018-12-11T02:28:20.697Z,30.90
2018-12-11T02:30:48.321Z,33.37
2018-12-11T02:33:16.020Z,28.93
2018-12-11T02:35:43.646Z,26.80
2018-12-11T02:38:11.915Z,22.87
2018-12-11T02:40:39.498Z,29.17
2018-12-11T02:43:07.124Z,33.83
2018-12-11T02:45:34.792Z,31.23
2018-12-11T02:48:02.355Z,19.20
2018-12-11T02:50:29.910Z,31.80
2018-12-11T02:52:57.641Z,33.87
2018-12-11T02:55:25.258Z,44.73
2018-12-11T02:57:53.177Z,29.70
2018-12-11T03:00:20.786Z,22.63
2018-12-11T03:02:48.368Z,34.73
2018-12-11T03:05:15.913Z,29.37
2018-12-11T03:07:43.533Z,29.17
2018-12-11T03:10:11.145Z,42.97
2018-12-11T03:12:38.741Z,38.33
2018-12-11T03:15:06.344Z,28.70
2018-12-11T03:17:33.976Z,31.23
2018-12-11T03:20:01.596Z,30.03
2018-12-11T03:22:29.205Z,29.73
2018-12-11T03:24:56.773Z,32.33
2018-12-11T03:27:24.438Z,23.47
2018-12-11T03:29:52.070Z,26.77
2018-12-11T03:32:19.729Z,32.13
2018-12-11T03:34:48.297Z,26.40
2018-12-11T03:37:15.881Z,28.83
2018-12-11T03:39:43.454Z,35.47
2018-12-11T03:42:11.185Z,25.60
2018-12-11T03:44:38.740Z,41.43
2018-12-11T03:47:06.299Z,26.77
2018-12-11T03:49:33.899Z,25.50
2018-12-11T03:52:01.483Z,30.60
2018-12-11T03:54:29.099Z,29.30
2018-12-11T03:56:57.287Z,38.73
2018-12-11T03:59:25.285Z,35.80
2018-12-11T04:01:52.901Z,29.77
2018-12-11T04:04:20.471Z,32.03
2018-12-11T04:06:48.117Z,29.57
2018-12-11T04:09:15.657Z,19.10
2018-12-11T04:11:43.260Z,25.47
2018-12-11T04:14:10.881Z,25.83
2018-12-11T04:16:38.473Z,43.63
2018-12-11T04:19:06.060Z,27.93
2018-12-11T04:21:33.651Z,29.07
2018-12-11T04:24:01.328Z,21.20
2018-12-11T04:26:29.049Z,31.73
2018-12-11T04:28:57.021Z,23.77
2018-12-11T04:31:25.091Z,29.17
2018-12-11T04:33:52.676Z,25.90
2018-12-11T04:36:20.230Z,30.53
2018-12-11T04:38:47.796Z,53.50
2018-12-11T04:41:15.358Z,30.40
2018-12-11T04:43:43.024Z,35.33
2018-12-11T04:46:10.716Z,22.20
2018-12-11T04:48:38.313Z,26.63
2018-12-11T04:51:05.910Z,49.43
2018-12-11T04:53:33.488Z,29.40
2018-12-11T04:56:01.190Z,28.80
2018-12-11T04:58:29.086Z,28.53
2018-12-11T05:00:56.668Z,25.73
2018-12-11T05:03:24.277Z,35.77
2018-12-11T05:05:51.857Z,25.93
2018-12-11T05:08:19.729Z,28.77
2018-12-11T05:10:47.410Z,25.47
2018-12-11T05:13:14.990Z,29.23
2018-12-11T05:15:42.679Z,19.50
2018-12-11T05:18:10.597Z,20.93
2018-12-11T05:20:38.213Z,23.33
2018-12-11T05:23:05.831Z,23.63
2018-12-11T05:25:33.450Z,16.30
2018-12-11T05:28:01.211Z,23.80
2018-12-11T05:30:28.797Z,21.40
2018-12-11T05:32:56.384Z,32.27
2018-12-11T05:35:23.990Z,22.87
2018-12-11T05:37:51.590Z,40.20
2018-12-11T05:40:19.198Z,18.53
2018-12-11T05:42:46.763Z,29.23
2018-12-11T05:45:14.597Z,23.43
2018-12-11T05:47:42.150Z,23.80
2018-12-11T05:50:09.729Z,23.73
2018-12-11T05:52:37.376Z,28.77
2018-12-11T05:55:05.798Z,33.93
2018-12-11T05:57:33.515Z,26.53
2018-12-11T06:00:01.489Z,26.47
2018-12-11T06:02:30.213Z,22.60
2018-12-11T06:04:57.842Z,18.93
2018-12-11T06:07:25.485Z,19.30
2018-12-11T06:09:53.099Z,23.37
2018-12-11T06:12:20.728Z,19.60
2018-12-11T06:14:48.283Z,15.43
2018-12-11T06:17:16.064Z,14.70
2018-12-11T06:19:43.713Z,32.30
2018-12-11T06:22:11.476Z,29.57
2018-12-11T06:24:39.104Z,19.67
2018-12-11T06:27:06.784Z,23.27
2018-12-11T06:29:34.667Z,17.13
2018-12-11T06:32:02.635Z,16.67
2018-12-11T06:34:30.205Z,23.70
2018-12-11T06:36:57.868Z,16.00
2018-12-11T06:39:25.496Z,17.73
2018-12-11T06:41:53.092Z,16.87
2018-12-11T06:44:20.681Z,20.70
2018-12-11T06:46:48.319Z,31.90
2018-12-11T06:49:15.910Z,14.37
2018-12-11T06:51:43.545Z,15.23
2018-12-11T06:54:11.253Z,16.03
2018-12-11T06:56:38.867Z,19.47
2018-12-11T06:59:06.463Z,17.57
2018-12-11T07:01:34.097Z,21.60
2018-12-11T07:04:01.749Z,16.90
2018-12-11T07:06:29.356Z,19.20
2018-12-11T07:08:56.963Z,13.23
2018-12-11T07:11:24.932Z,19.00
2018-12-11T07:13:52.549Z,9.80
2018-12-11T07:16:20.140Z,22.27
2018-12-11T07:18:47.735Z,16.00
2018-12-11T07:21:15.421Z,17.40
2018-12-11T07:23:43.056Z,12.87
2018-12-11T07:26:10.603Z,17.50
2018-12-11T07:28:38.276Z,13.63
2018-12-11T07:31:05.848Z,13.27
2018-12-11T07:33:33.457Z,12.60
2018-12-11T07:36:01.122Z,13.83
2018-12-11T07:38:28.742Z,10.57
2018-12-11T07:40:56.442Z,11.00
2018-12-11T07:43:24.142Z,11.43
2018-12-11T07:45:51.732Z,10.80
2018-12-11T07:48:19.397Z,10.77
2018-12-11T07:50:47.542Z,11.73
2018-12-11T07:53:15.606Z,12.40
2018-12-11T07:55:43.351Z,10.33
2018-12-11T07:58:11.054Z,10.70
2018-12-11T08:00:38.669Z,12.00
2018-12-11T08:03:06.342Z,9.70
2018-12-11T08:05:33.967Z,10.13
2018-12-11T08:08:01.769Z,11.30
2018-12-11T08:13:09.437Z,11.07
2018-12-11T08:15:37.043Z,9.83
2018-12-11T08:18:04.627Z,9.70
2018-12-11T08:20:32.337Z,12.83
2018-12-11T08:22:59.987Z,14.30
2018-12-11T08:25:27.576Z,11.50
2018-12-11T08:27:55.199Z,13.77
2018-12-11T08:30:22.885Z,19.43
2018-12-11T08:32:50.576Z,13.30
2018-12-11T08:35:18.467Z,14.90
2018-12-11T08:37:46.111Z,13.80
2018-12-11T08:40:13.723Z,34.43
2018-12-11T08:42:41.277Z,13.77
2018-12-11T08:45:08.933Z,11.10
2018-12-11T08:47:36.657Z,11.90
2018-12-11T08:50:04.986Z,12.43
2018-12-11T08:52:32.780Z,10.23
2018-12-11T08:55:00.499Z,15.53
2018-12-11T08:57:28.188Z,14.07
2018-12-11T08:59:55.792Z,13.67
2018-12-11T09:02:23.415Z,10.63
2018-12-11T09:04:51.078Z,12.57
2018-12-11T09:07:18.687Z,10.83
2018-12-11T09:09:46.271Z,16.07
2018-12-11T09:12:13.895Z,13.47
2018-12-11T09:14:41.487Z,12.03
2018-12-11T09:17:10.326Z,15.93
2018-12-11T09:19:38.573Z,10.03
2018-12-11T09:22:06.160Z,23.40
2018-12-11T09:24:33.899Z,14.07
2018-12-11T09:27:01.673Z,12.90
2018-12-11T09:29:29.246Z,14.93
2018-12-11T09:31:56.904Z,14.47
2018-12-11T09:34:24.503Z,16.30
2018-12-11T09:36:52.415Z,12.57
2018-12-11T09:39:20.020Z,11.00
2018-12-11T09:41:47.607Z,12.47
2018-12-11T09:44:15.227Z,10.90
2018-12-11T09:46:42.830Z,10.50
2018-12-11T09:49:10.411Z,10.20
2018-12-11T09:51:38.133Z,8.57
2018-12-11T09:54:05.878Z,9.23
2018-12-11T09:56:33.513Z,8.60
2018-12-11T09:59:01.146Z,14.80
2018-12-11T10:01:28.891Z,9.90
2018-12-11T10:03:56.564Z,9.77
2018-12-11T10:06:24.195Z,9.57
2018-12-11T10:08:53.812Z,8.97
2018-12-11T10:11:21.435Z,10.23
2018-12-11T10:13:49.015Z,10.80
2018-12-11T10:16:16.717Z,13.53
2018-12-11T10:18:44.320Z,10.53
2018-12-11T10:21:11.915Z,9.70
2018-12-11T10:23:39.960Z,9.57
2018-12-11T10:26:09.010Z,8.90
2018-12-11T10:28:36.639Z,17.57
2018-12-11T10:31:04.430Z,9.10
2018-12-11T10:33:32.259Z,10.00
2018-12-11T10:35:59.912Z,9.50
2018-12-11T10:38:27.505Z,11.27
2018-12-11T10:40:55.338Z,10.80
2018-12-11T10:43:22.985Z,13.10
2018-12-11T10:45:50.652Z,11.27
2018-12-11T10:48:18.379Z,10.30
2018-12-11T10:50:45.927Z,11.03
2018-12-11T10:53:13.537Z,9.63
2018-12-11T10:55:41.149Z,9.10
2018-12-11T10:58:08.911Z,8.93
2018-12-11T11:00:42.213Z,9.43
2018-12-11T11:03:10.591Z,16.90
2018-12-11T11:05:38.193Z,10.90
2018-12-11T11:08:05.849Z,8.50
2018-12-11T11:10:33.506Z,10.70
2018-12-11T11:13:01.203Z,8.70
2018-12-11T11:15:28.792Z,9.10
2018-12-11T11:17:56.380Z,15.83
2018-12-11T11:20:24.068Z,9.63
2018-12-11T11:22:51.620Z,8.93
2018-12-11T11:25:19.215Z,8.80
2018-12-11T11:27:46.810Z,12.07
2018-12-11T11:30:14.352Z,8.97
2018-12-11T11:32:41.930Z,10.10
2018-12-11T11:35:09.805Z,9.67
2018-12-11T11:37:37.439Z,11.03
2018-12-11T11:40:05.224Z,9.03
2018-12-11T11:42:33.995Z,11.60
2018-12-11T11:45:01.894Z,9.70
2018-12-11T11:47:29.470Z,17.10
2018-12-11T11:49:57.135Z,8.90
2018-12-11T11:52:24.720Z,8.67
2018-12-11T11:54:52.334Z,9.90
2018-12-11T11:57:19.935Z,10.43
2018-12-11T11:59:47.603Z,9.80
2018-12-11T12:02:15.143Z,10.00
2018-12-11T12:04:42.734Z,11.10
2018-12-11T12:07:10.319Z,9.50
2018-12-11T12:09:37.882Z,10.23
2018-12-11T12:12:05.480Z,11.03
2018-12-11T12:14:33.041Z,9.20
2018-12-11T12:17:00.962Z,11.40
2018-12-11T12:19:28.560Z,10.40
2018-12-11T12:21:56.232Z,11.80
2018-12-11T12:24:23.855Z,13.17
2018-12-11T12:26:51.445Z,11.10
2018-12-11T12:29:19.030Z,11.10
2018-12-11T12:31:46.640Z,11.17
2018-12-11T12:34:14.628Z,8.97
2018-12-11T12:36:42.259Z,10.00
2018-12-11T12:39:09.949Z,9.37
2018-12-11T12:41:37.568Z,9.43
2018-12-11T12:44:05.191Z,12.50
2018-12-11T12:46:32.743Z,8.90
2018-12-11T12:49:00.346Z,11.60
2018-12-11T12:51:27.926Z,8.83
2018-12-11T12:53:55.803Z,9.90
2018-12-11T12:56:23.435Z,12.20
2018-12-11T12:58:51.036Z,11.73
2018-12-11T13:01:18.896Z,11.40
2018-12-11T13:03:47.269Z,13.83
2018-12-11T13:06:14.914Z,12.60
2018-12-11T13:08:42.610Z,11.43
2018-12-11T13:11:10.272Z,10.57
2018-12-11T13:13:38.074Z,9.90
2018-12-11T13:16:05.706Z,14.93
2018-12-11T13:18:33.273Z,9.53
2018-12-11T13:21:00.933Z,13.77
2018-12-11T13:23:28.930Z,13.70
2018-12-11T13:25:56.557Z,15.80
2018-12-11T13:28:24.140Z,9.60
2018-12-11T13:30:51.752Z,11.43
2018-12-11T13:33:19.311Z,10.70
2018-12-11T13:35:47.343Z,16.53
2018-12-11T13:38:14.954Z,10.63
2018-12-11T13:40:42.784Z,12.37
2018-12-11T13:43:10.498Z,14.30
2018-12-11T13:45:38.160Z,11.37
2018-12-11T13:48:05.998Z,9.90
2018-12-11T13:50:33.842Z,15.13
2018-12-11T13:53:01.448Z,15.73
2018-12-11T13:55:29.068Z,15.20
2018-12-11T13:57:56.855Z,13.53
2018-12-11T14:00:24.501Z,21.73
2018-12-11T14:02:52.095Z,15.17
2018-12-11T14:05:19.926Z,18.57
2018-12-11T14:07:47.620Z,17.87
2018-12-11T14:10:15.438Z,24.97
2018-12-11T14:12:43.092Z,13.93
2018-12-11T14:15:10.851Z,17.53
2018-12-11T14:17:38.534Z,16.40
2018-12-11T14:20:06.278Z,14.43
2018-12-11T14:22:33.988Z,17.80
2018-12-11T14:25:01.828Z,14.27
2018-12-11T14:27:29.455Z,13.07
2018-12-11T14:29:57.050Z,18.57
2018-12-11T14:32:24.732Z,17.07
2018-12-11T14:34:52.363Z,34.27
2018-12-11T14:37:19.922Z,12.93
2018-12-11T14:39:47.522Z,19.80
2018-12-11T14:42:15.189Z,22.40
2018-12-11T14:44:42.833Z,14.87
2018-12-11T14:47:10.465Z,11.10
2018-12-11T14:49:38.068Z,23.40
2018-12-11T14:52:05.749Z,12.10
2018-12-11T14:54:34.319Z,19.13
2018-12-11T14:57:01.859Z,14.20
2018-12-11T14:59:29.791Z,12.13
2018-12-11T15:01:57.450Z,31.30
2018-12-11T15:04:25.153Z,13.93
2018-12-11T15:06:52.820Z,12.77
2018-12-11T15:09:26.202Z,12.23
2018-12-11T15:11:53.916Z,11.33
2018-12-11T15:14:21.570Z,14.03
2018-12-11T15:16:49.341Z,14.90
2018-12-11T15:19:17.063Z,15.57
2018-12-11T15:21:44.747Z,11.33
2018-12-11T15:24:12.336Z,15.00
2018-12-11T15:26:39.909Z,12.30
2018-12-11T15:29:07.499Z,17.20
2018-12-11T15:31:35.134Z,13.87
2018-12-11T15:34:02.888Z,11.23
2018-12-11T15:36:30.801Z,11.50
2018-12-11T15:38:58.394Z,10.20
2018-12-11T15:41:25.928Z,12.93
2018-12-11T15:43:53.568Z,11.70
2018-12-11T15:46:21.879Z,17.53
2018-12-11T15:48:49.598Z,10.93
2018-12-11T15:51:17.331Z,12.97
2018-12-11T15:53:45.007Z,10.30
2018-12-11T15:56:12.585Z,10.80
2018-12-11T15:58:40.215Z,14.07
2018-12-11T16:01:07.875Z,11.10
2018-12-11T16:03:35.565Z,10.37
2018-12-11T16:06:03.218Z,12.57
2018-12-11T16:08:30.884Z,10.57
2018-12-11T16:10:58.549Z,13.07
2018-12-11T16:13:26.169Z,12.93
2018-12-11T16:15:53.778Z,13.93
2018-12-11T16:18:21.389Z,9.80
2018-12-11T16:20:49.096Z,9.97
2018-12-11T16:23:16.787Z,13.10
2018-12-11T16:25:44.452Z,9.90
2018-12-11T16:28:12.103Z,9.90
2018-12-11T16:30:39.845Z,9.77
2018-12-11T16:33:07.420Z,11.80
2018-12-11T16:35:35.359Z,9.80
2018-12-11T16:38:02.942Z,9.60
2018-12-11T16:40:30.629Z,10.40
2018-12-11T16:42:58.271Z,10.07
2018-12-11T16:45:25.849Z,10.23
2018-12-11T16:47:53.492Z,14.10
2018-12-11T16:50:21.359Z,12.00
2018-12-11T16:52:49.037Z,22.57
2018-12-11T16:55:16.754Z,12.63
2018-12-11T16:57:45.025Z,11.43
2018-12-11T17:00:14.218Z,10.50
2018-12-11T17:02:42.019Z,10.03
2018-12-11T17:05:09.679Z,10.43
2018-12-11T17:07:37.333Z,11.07
2018-12-11T17:10:05.540Z,12.40
2018-12-11T17:12:33.352Z,13.17
2018-12-11T17:15:02.606Z,10.00
2018-12-11T17:17:30.239Z,10.00
2018-12-11T17:19:57.797Z,20.60
2018-12-11T17:22:25.741Z,10.70
2018-12-11T17:24:53.364Z,10.43
2018-12-11T17:27:20.965Z,13.53
2018-12-11T17:29:48.864Z,11.30
2018-12-11T17:32:16.576Z,10.30
2018-12-11T17:34:44.151Z,9.60
2018-12-11T17:37:11.790Z,10.50
2018-12-11T17:39:39.670Z,9.80
2018-12-11T17:42:07.639Z,9.70
2018-12-11T17:44:35.437Z,11.30
2018-12-11T17:47:03.087Z,13.30
2018-12-11T17:49:30.734Z,11.70
2018-12-11T17:51:58.854Z,9.40
2018-12-11T17:54:26.499Z,10.80
2018-12-11T17:56:54.300Z,9.90
2018-12-11T17:59:22.246Z,11.17
2018-12-11T18:01:51.236Z,9.70
2018-12-11T18:04:20.052Z,10.00
2018-12-11T18:06:47.765Z,12.33
2018-12-11T18:09:16.963Z,11.20
2018-12-11T18:11:45.898Z,14.00
2018-12-11T18:14:16.250Z,9.80
2018-12-11T18:16:45.807Z,11.83
2018-12-11T18:19:15.957Z,14.77
2018-12-11T18:21:44.322Z,10.80
2018-12-11T18:24:13.889Z,15.30
2018-12-11T18:26:43.862Z,10.63
2018-12-11T18:29:12.167Z,10.40
2018-12-11T18:31:41.713Z,10.30
2018-12-11T18:34:11.108Z,11.47
2018-12-11T18:36:39.884Z,11.30
2018-12-11T18:39:09.307Z,12.93
2018-12-11T18:41:39.783Z,10.60
2018-12-11T18:44:12.297Z,11.10
2018-12-11T18:46:55.015Z,18.73
2018-12-11T18:49:31.442Z,12.53
2018-12-11T18:52:05.092Z,9.60
2018-12-11T18:54:36.789Z,12.20
2018-12-11T18:57:09.814Z,10.93
2018-12-11T19:02:26.060Z,9.00
2018-12-11T19:04:55.583Z,9.60
2018-12-11T19:07:23.730Z,13.03
2018-12-11T19:09:55.518Z,10.77
2018-12-11T19:12:25.470Z,10.30
2018-12-11T19:14:53.986Z,11.30
2018-12-11T19:17:22.007Z,10.57
2018-12-11T19:19:53.342Z,11.57
2018-12-11T19:22:21.483Z,12.30
2018-12-11T19:24:49.968Z,10.03
2018-12-11T19:27:17.825Z,10.70
2018-12-11T19:29:46.238Z,11.70
2018-12-11T19:32:13.994Z,10.80
2018-12-11T19:34:41.637Z,10.97
2018-12-11T19:37:09.233Z,14.23
2018-12-11T19:39:36.905Z,10.00
2018-12-11T19:42:04.653Z,10.50
2018-12-11T19:44:32.400Z,14.07
2018-12-11T19:46:59.972Z,11.20
2018-12-11T19:49:27.581Z,10.80
2018-12-11T19:51:55.975Z,12.00
2018-12-11T19:54:23.891Z,14.63
2018-12-11T19:56:51.618Z,10.60
2018-12-11T19:59:19.213Z,12.37
2018-12-11T20:01:48.114Z,11.63
2018-12-11T20:04:16.351Z,9.53
2018-12-11T20:06:44.069Z,11.73
2018-12-11T20:09:11.764Z,10.60
2018-12-11T20:11:39.655Z,13.23
2018-12-11T20:14:07.712Z,11.30
2018-12-11T20:16:35.751Z,14.60
2018-12-11T20:19:03.965Z,14.00
2018-12-11T20:21:32.142Z,11.67
2018-12-11T20:24:04.940Z,11.67
2018-12-11T20:26:29.876Z,12.20
2018-12-11T20:28:57.971Z,10.33
2018-12-11T20:31:25.673Z,9.60
2018-12-11T20:33:54.148Z,9.57
2018-12-11T20:36:21.984Z,11.50
2018-12-11T20:38:50.397Z,10.00
2018-12-11T20:41:18.250Z,13.30
2018-12-11T20:43:45.972Z,10.57
2018-12-11T20:46:14.132Z,11.77
2018-12-11T20:48:42.601Z,10.37
2018-12-11T20:51:10.816Z,11.80
2018-12-11T20:53:39.162Z,12.93
2018-12-11T20:56:06.986Z,10.70
2018-12-11T20:58:35.107Z,9.93
2018-12-11T21:01:02.862Z,18.13
2018-12-11T21:03:30.588Z,10.43
2018-12-11T21:05:58.622Z,13.90
2018-12-11T21:08:26.248Z,11.53
2018-12-11T21:10:54.353Z,11.10
2018-12-11T21:13:22.043Z,9.73
2018-12-11T21:15:49.845Z,10.30
2018-12-11T21:18:17.629Z,10.87
2018-12-11T21:23:19.219Z,10.60
2018-12-11T21:25:48.455Z,14.37
2018-12-11T21:28:16.743Z,11.80
2018-12-11T21:30:44.548Z,9.57
2018-12-11T21:33:12.244Z,9.60
2018-12-11T21:35:40.700Z,11.03
2018-12-11T21:38:08.369Z,10.27
2018-12-11T21:40:35.993Z,13.90
2018-12-11T21:43:03.695Z,9.53
2018-12-11T21:45:31.323Z,12.40
2018-12-11T21:47:59.081Z,14.23
2018-12-11T21:50:26.856Z,20.00
2018-12-11T21:52:54.548Z,13.03
2018-12-11T21:55:22.843Z,10.60
2018-12-11T21:57:50.704Z,14.13
2018-12-11T22:00:18.635Z,9.43
2018-12-11T22:02:46.890Z,9.63
2018-12-11T22:05:14.806Z,10.10
2018-12-11T22:07:42.897Z,11.83
2018-12-11T22:10:10.591Z,9.00
2018-12-11T22:12:38.289Z,10.73
2018-12-11T22:15:06.843Z,11.57
2018-12-11T22:17:34.468Z,9.17
2018-12-11T22:20:02.154Z,9.90
2018-12-11T22:22:29.696Z,9.67
2018-12-11T22:24:57.330Z,10.10
2018-12-11T22:27:24.924Z,11.20
2018-12-11T22:29:52.573Z,11.97
2018-12-11T22:32:20.256Z,11.20
2018-12-11T22:34:47.858Z,15.70
2018-12-11T22:37:15.401Z,9.70
2018-12-11T22:39:42.976Z,9.43
2018-12-11T22:42:10.725Z,9.60
2018-12-11T22:44:38.461Z,12.23
2018-12-11T22:47:06.029Z,10.70
2018-12-11T22:49:33.764Z,9.53
2018-12-11T22:52:01.365Z,11.07
2018-12-11T22:54:29.192Z,9.40
2018-12-11T22:56:56.853Z,9.33
2018-12-11T22:59:24.530Z,10.00
2018-12-11T23:01:52.113Z,12.03
2018-12-11T23:04:19.761Z,9.57
2018-12-11T23:06:47.429Z,10.57
2018-12-11T23:09:15.063Z,11.60
2018-12-11T23:11:42.746Z,13.33
2018-12-11T23:14:10.349Z,10.33
2018-12-11T23:16:38.002Z,10.67
2018-12-11T23:19:05.630Z,10.00
2018-12-11T23:21:33.262Z,10.53
2018-12-11T23:24:01.294Z,9.47
2018-12-11T23:26:29.137Z,10.10
2018-12-11T23:28:56.689Z,9.43
2018-12-11T23:31:24.289Z,13.10
2018-12-11T23:33:51.886Z,9.87
2018-12-11T23:36:19.472Z,10.20
2018-12-11T23:38:47.135Z,13.13
2018-12-11T23:41:14.700Z,10.13
2018-12-11T23:43:42.366Z,9.60
2018-12-11T23:46:10.318Z,10.17
2018-12-11T23:48:37.953Z,15.13
2018-12-11T23:51:05.553Z,9.77
2018-12-11T23:53:33.565Z,10.10
2018-12-11T23:56:01.244Z,11.57
2018-12-11T23:58:28.863Z,10.97
